createdAt,value
2022-08-28T00:01:00.366Z,69.4
2022-08-28T00:02:44.035Z,69.4
2022-08-28T00:04:27.764Z,69.4
2022-08-28T00:06:11.480Z,69.4
2022-08-28T00:07:55.158Z,69.4
2022-08-28T00:09:38.837Z,69.4
2022-08-28T00:11:22.534Z,69.4
2022-08-28T00:13:06.239Z,69.4
2022-08-28T00:14:49.962Z,69.5
2022-08-28T00:16:33.651Z,69.5
2022-08-28T00:18:17.339Z,69.4
2022-08-28T00:20:01.044Z,69.4
2022-08-28T00:21:44.769Z,69.4
2022-08-28T00:23:28.462Z,69.4
2022-08-28T00:25:12.146Z,69.4
2022-08-28T00:26:55.851Z,69.4
2022-08-28T00:28:39.560Z,69.4
2022-08-28T00:30:23.270Z,69.4
2022-08-28T00:32:06.964Z,69.4
2022-08-28T00:33:50.664Z,69.4
2022-08-28T00:35:34.366Z,69.3
2022-08-28T00:37:18.050Z,69.4
2022-08-28T00:39:01.765Z,69.3
2022-08-28T00:40:45.485Z,69.4
2022-08-28T00:42:29.167Z,69.3
2022-08-28T00:44:12.870Z,69.3
2022-08-28T00:45:56.568Z,69.2
2022-08-28T00:47:40.287Z,69.3
2022-08-28T00:49:23.981Z,69.3
2022-08-28T00:51:07.695Z,69.3
2022-08-28T00:52:51.387Z,69.3
2022-08-28T00:54:35.081Z,69.3
2022-08-28T00:56:18.784Z,69.3
2022-08-28T00:58:02.495Z,69.3
2022-08-28T00:59:46.187Z,69.3
2022-08-28T01:01:29.889Z,69.3
2022-08-28T01:03:13.598Z,69.3
2022-08-28T01:04:57.313Z,69.3
2022-08-28T01:06:41.005Z,69.3
2022-08-28T01:08:24.709Z,69.3
2022-08-28T01:10:08.413Z,69.3
2022-08-28T01:11:52.112Z,69.3
2022-08-28T01:13:35.835Z,69.3
2022-08-28T01:15:19.500Z,69.3
2022-08-28T01:17:03.221Z,69.3
2022-08-28T01:18:46.914Z,69.3
2022-08-28T01:20:30.609Z,69.3
2022-08-28T01:22:14.319Z,69.3
2022-08-28T01:23:58.022Z,69.3
2022-08-28T01:25:41.716Z,69.3
2022-08-28T01:27:25.428Z,69.3
2022-08-28T01:29:09.140Z,69.3
2022-08-28T01:30:52.834Z,69.3
2022-08-28T01:32:36.521Z,69.3
2022-08-28T01:34:20.236Z,69.3
2022-08-28T01:36:03.999Z,69.3
2022-08-28T01:37:47.650Z,69.3
2022-08-28T01:39:31.338Z,69.3
2022-08-28T01:41:15.034Z,69.3
2022-08-28T01:42:58.743Z,69.3
2022-08-28T01:44:42.460Z,69.3
2022-08-28T01:46:26.147Z,69.3
2022-08-28T01:48:09.857Z,69.3
2022-08-28T01:49:53.550Z,69.3
2022-08-28T01:51:37.263Z,69.3
2022-08-28T01:53:20.974Z,69.3
2022-08-28T01:55:04.659Z,69.3
2022-08-28T01:56:48.359Z,69.3
2022-08-28T01:58:32.072Z,69.3
2022-08-28T02:00:15.782Z,69.3
2022-08-28T02:01:59.456Z,69.3
2022-08-28T02:03:43.170Z,69.3
2022-08-28T02:05:26.873Z,69.3
2022-08-28T02:07:10.587Z,69.3
2022-08-28T02:08:54.259Z,69.3
2022-08-28T02:10:37.973Z,69.3
2022-08-28T02:12:21.670Z,69.3
2022-08-28T02:14:05.372Z,69.3
2022-08-28T02:15:49.070Z,69.3
2022-08-28T02:17:32.758Z,69.3
2022-08-28T02:19:16.469Z,69.3
2022-08-28T02:21:00.176Z,69.3
2022-08-28T02:22:43.859Z,69.3
2022-08-28T02:24:27.558Z,69.3
2022-08-28T02:26:11.275Z,69.3
2022-08-28T02:27:54.968Z,69.3
2022-08-28T02:29:38.666Z,69.3
2022-08-28T02:31:22.373Z,69.3
2022-08-28T02:33:06.073Z,69.3
2022-08-28T02:34:49.783Z,69.3
2022-08-28T02:36:33.496Z,69.3
2022-08-28T02:38:17.186Z,69.3
2022-08-28T02:40:00.883Z,69.3
2022-08-28T02:41:44.602Z,69.3
2022-08-28T02:43:28.291Z,69.3
2022-08-28T02:45:11.996Z,69.3
2022-08-28T02:46:55.688Z,69.3
2022-08-28T02:48:39.397Z,69.3
2022-08-28T02:50:23.103Z,69.3
2022-08-28T02:52:06.779Z,69.3
2022-08-28T02:53:50.483Z,69.3
2022-08-28T02:55:34.199Z,69.3
2022-08-28T02:57:17.891Z,69.3
2022-08-28T02:59:01.584Z,69.2
2022-08-28T03:00:45.292Z,69.3
2022-08-28T03:02:28.986Z,69.3
2022-08-28T03:04:12.705Z,69.3
2022-08-28T03:05:56.401Z,69.3
2022-08-28T03:07:40.092Z,69.3
2022-08-28T03:09:23.828Z,69.3
2022-08-28T03:11:07.507Z,69.3
2022-08-28T03:12:51.213Z,69.3
2022-08-28T03:14:34.898Z,69.3
2022-08-28T03:16:18.604Z,69.3
2022-08-28T03:18:02.312Z,69.3
2022-08-28T03:19:46.010Z,69.3
2022-08-28T03:21:29.720Z,69.3
2022-08-28T03:23:13.431Z,69.3
2022-08-28T03:24:57.123Z,69.3
2022-08-28T03:26:40.830Z,69.3
2022-08-28T03:28:24.509Z,69.3
2022-08-28T03:30:08.232Z,69.3
2022-08-28T03:31:51.931Z,69.3
2022-08-28T03:33:35.621Z,69.3
2022-08-28T03:35:19.325Z,69.3
2022-08-28T03:37:03.047Z,69.3
2022-08-28T03:38:46.746Z,69.3
2022-08-28T03:40:30.449Z,69.3
2022-08-28T03:42:14.136Z,69.3
2022-08-28T03:43:57.832Z,69.3
2022-08-28T03:45:41.538Z,69.3
2022-08-28T03:47:25.255Z,69.3
2022-08-28T03:49:08.942Z,69.3
2022-08-28T03:50:52.672Z,69.3
2022-08-28T03:52:36.348Z,69.3
2022-08-28T03:54:20.050Z,69.2
2022-08-28T03:56:03.754Z,69.3
2022-08-28T03:57:47.464Z,69.3
2022-08-28T03:59:31.155Z,69.3
2022-08-28T04:01:14.860Z,69.3
2022-08-28T04:02:58.555Z,69.3
2022-08-28T04:04:42.271Z,69.3
2022-08-28T04:06:25.974Z,69.3
2022-08-28T04:08:09.676Z,69.3
2022-08-28T04:09:53.384Z,69.3
2022-08-28T04:11:37.082Z,69.4
2022-08-28T04:13:20.780Z,69.3
2022-08-28T04:15:04.483Z,69.3
2022-08-28T04:16:48.183Z,69.3
2022-08-28T04:18:31.887Z,69.3
2022-08-28T04:20:15.592Z,69.3
2022-08-28T04:21:59.292Z,69.3
2022-08-28T04:23:42.981Z,69.3
2022-08-28T04:25:26.689Z,69.3
2022-08-28T04:27:10.400Z,69.3
2022-08-28T04:28:54.092Z,69.3
2022-08-28T04:30:37.786Z,69.3
2022-08-28T04:32:21.494Z,69.3
2022-08-28T04:34:05.209Z,69.3
2022-08-28T04:35:48.893Z,69.3
2022-08-28T04:37:32.597Z,69.3
2022-08-28T04:39:16.289Z,69.3
2022-08-28T04:41:00.003Z,69.3
2022-08-28T04:42:43.713Z,69.3
2022-08-28T04:44:27.395Z,69.3
2022-08-28T04:46:11.103Z,69.3
2022-08-28T04:47:54.799Z,69.3
2022-08-28T04:49:38.500Z,69.3
2022-08-28T04:51:22.204Z,69.3
2022-08-28T04:53:05.910Z,69.3
2022-08-28T04:54:49.606Z,69.3
2022-08-28T04:56:33.309Z,69.3
2022-08-28T04:58:16.992Z,69.3
2022-08-28T05:00:00.694Z,69.3
2022-08-28T05:01:44.400Z,69.3
2022-08-28T05:03:28.114Z,69.3
2022-08-28T05:05:11.792Z,69.3
2022-08-28T05:06:55.511Z,69.3
2022-08-28T05:08:39.217Z,69.3
2022-08-28T05:10:22.905Z,69.2
2022-08-28T05:12:06.605Z,69.2
2022-08-28T05:13:50.301Z,69.2
2022-08-28T05:15:33.997Z,69.1
2022-08-28T05:17:17.699Z,69.1
2022-08-28T05:19:01.387Z,69
2022-08-28T05:20:45.109Z,69
2022-08-28T05:22:28.813Z,68.9
2022-08-28T05:24:12.496Z,68.9
2022-08-28T05:25:56.197Z,68.8
2022-08-28T05:27:39.890Z,68.8
2022-08-28T05:29:23.615Z,68.8
2022-08-28T05:31:07.314Z,68.7
2022-08-28T05:32:51.009Z,68.6
2022-08-28T05:34:34.710Z,68.6
2022-08-28T05:36:18.398Z,68.6
2022-08-28T05:38:02.109Z,68.5
2022-08-28T05:39:45.800Z,68.5
2022-08-28T05:41:29.495Z,68.4
2022-08-28T05:43:13.236Z,68.4
2022-08-28T05:44:56.921Z,68.3
2022-08-28T05:46:40.606Z,68.3
2022-08-28T05:48:24.298Z,68.2
2022-08-28T05:50:08.010Z,68.1
2022-08-28T05:51:51.705Z,68.1
2022-08-28T05:53:35.405Z,68
2022-08-28T05:55:19.099Z,68
2022-08-28T05:57:02.814Z,67.9
2022-08-28T05:58:46.517Z,67.8
2022-08-28T06:00:30.192Z,67.7
2022-08-28T06:02:13.910Z,67.6
2022-08-28T06:03:57.617Z,67.5
2022-08-28T06:05:41.322Z,67.4
2022-08-28T06:07:25.018Z,67.4
2022-08-28T06:09:08.712Z,67.3
2022-08-28T06:10:52.430Z,67.2
2022-08-28T06:12:36.119Z,67.1
2022-08-28T06:14:19.808Z,67
2022-08-28T06:16:03.521Z,66.9
2022-08-28T06:17:47.236Z,66.8
2022-08-28T06:19:30.936Z,66.8
2022-08-28T06:21:14.634Z,66.7
2022-08-28T06:22:58.316Z,66.5
2022-08-28T06:24:42.023Z,66.4
2022-08-28T06:26:25.743Z,66.3
2022-08-28T06:28:09.419Z,66.1
2022-08-28T06:29:53.125Z,65.9
2022-08-28T06:31:36.838Z,65.8
2022-08-28T06:33:20.546Z,65.7
2022-08-28T06:35:04.242Z,65.6
2022-08-28T06:36:47.927Z,65.6
2022-08-28T06:38:31.642Z,65.6
2022-08-28T06:40:15.346Z,65.5
2022-08-28T06:41:59.039Z,65.5
2022-08-28T06:43:42.740Z,65.5
2022-08-28T06:45:26.459Z,65.4
2022-08-28T06:47:10.144Z,65.5
2022-08-28T06:48:53.840Z,65.5
2022-08-28T06:50:37.544Z,65.5
2022-08-28T06:52:21.251Z,65.5
2022-08-28T06:54:04.966Z,65.6
2022-08-28T06:55:48.653Z,65.7
2022-08-28T06:57:32.355Z,65.8
2022-08-28T06:59:16.065Z,65.9
2022-08-28T07:00:59.787Z,65.9
2022-08-28T07:02:43.470Z,66
2022-08-28T07:04:27.173Z,65.9
2022-08-28T07:06:10.887Z,65.9
2022-08-28T07:07:54.596Z,65.9
2022-08-28T07:09:38.269Z,65.8
2022-08-28T07:11:21.985Z,65.7
2022-08-28T07:13:05.700Z,65.7
2022-08-28T07:14:49.412Z,66.3
2022-08-28T07:16:33.083Z,67.3
2022-08-28T07:18:16.790Z,67.7
2022-08-28T07:20:00.513Z,67.9
2022-08-28T07:21:44.209Z,68
2022-08-28T07:23:27.901Z,68.2
2022-08-28T07:25:11.615Z,68
2022-08-28T07:26:55.312Z,68
2022-08-28T07:28:39.006Z,68.2
2022-08-28T07:30:22.709Z,68.2
2022-08-28T07:32:06.418Z,68.4
2022-08-28T07:33:50.113Z,68.6
2022-08-28T07:35:33.821Z,68.7
2022-08-28T07:37:17.510Z,68.9
2022-08-28T07:39:01.223Z,69.1
2022-08-28T07:40:44.930Z,69.2
2022-08-28T07:42:28.629Z,69
2022-08-28T07:44:12.324Z,68.8
2022-08-28T07:45:56.016Z,68.8
2022-08-28T07:47:39.735Z,69
2022-08-28T07:49:23.439Z,68.9
2022-08-28T07:51:07.125Z,68.9
2022-08-28T07:52:50.822Z,69.2
2022-08-28T07:54:34.537Z,68.8
2022-08-28T07:56:18.237Z,68.7
2022-08-28T07:58:01.935Z,68.5
2022-08-28T07:59:45.639Z,68.4
2022-08-28T08:01:29.344Z,68.2
2022-08-28T08:03:13.037Z,68.2
2022-08-28T08:04:56.727Z,67.8
2022-08-28T08:06:40.425Z,68.1
2022-08-28T08:08:24.140Z,68.2
2022-08-28T08:10:07.850Z,68.2
2022-08-28T08:11:51.530Z,67.7
2022-08-28T08:13:35.253Z,67.2
2022-08-28T08:15:18.959Z,67.7
2022-08-28T08:17:02.651Z,67.9
2022-08-28T08:18:46.353Z,67.2
2022-08-28T08:20:30.060Z,67.4
2022-08-28T08:22:13.746Z,67
2022-08-28T08:23:57.505Z,66.7
2022-08-28T08:25:41.145Z,67
2022-08-28T08:27:24.850Z,67.1
2022-08-28T08:29:08.555Z,66.8
2022-08-28T08:30:52.253Z,66.2
2022-08-28T08:32:35.940Z,65.9
2022-08-28T08:34:19.681Z,65.6
2022-08-28T08:36:03.355Z,65.2
2022-08-28T08:37:47.049Z,65.1
2022-08-28T08:39:30.755Z,64.8
2022-08-28T08:41:14.522Z,64.3
2022-08-28T08:42:58.143Z,63.9
2022-08-28T08:44:41.870Z,64
2022-08-28T08:46:25.552Z,64.2
2022-08-28T08:48:09.251Z,64.3
2022-08-28T08:49:52.955Z,64.2
2022-08-28T08:51:36.664Z,63.8
2022-08-28T08:53:20.359Z,62.1
2022-08-28T08:55:04.065Z,62
2022-08-28T08:56:47.772Z,62
2022-08-28T08:58:31.470Z,62.1
2022-08-28T09:00:15.163Z,62.1
2022-08-28T09:01:58.860Z,62
2022-08-28T09:03:42.578Z,61.9
2022-08-28T09:05:26.279Z,61.8
2022-08-28T09:07:09.973Z,61.6
2022-08-28T09:08:53.672Z,61.5
2022-08-28T09:10:37.378Z,61.4
2022-08-28T09:12:21.083Z,61.2
2022-08-28T09:14:04.785Z,61.1
2022-08-28T09:15:48.506Z,61
2022-08-28T09:17:32.194Z,60.9
2022-08-28T09:19:15.880Z,60.8
2022-08-28T09:20:59.600Z,60.7
2022-08-28T09:22:43.291Z,60.7
2022-08-28T09:24:26.990Z,60.6
2022-08-28T09:26:10.711Z,60.6
2022-08-28T09:27:54.387Z,60.5
2022-08-28T09:29:38.116Z,60.5
2022-08-28T09:33:05.505Z,60.3
2022-08-28T09:34:49.206Z,60.4
2022-08-28T09:36:32.899Z,60.5
2022-08-28T09:38:16.611Z,60.6
2022-08-28T09:40:00.293Z,60.7
2022-08-28T09:41:44.002Z,60.8
2022-08-28T09:43:27.712Z,60.8
2022-08-28T09:45:11.415Z,60.8
2022-08-28T09:46:55.096Z,60.8
2022-08-28T09:48:38.822Z,60.9
2022-08-28T09:50:22.510Z,60.9
2022-08-28T09:52:06.230Z,60.9
2022-08-28T09:53:49.906Z,60.9
2022-08-28T09:55:33.623Z,60.9
2022-08-28T09:57:17.311Z,60.8
2022-08-28T09:59:01.024Z,60.7
2022-08-28T10:00:44.712Z,60.6
2022-08-28T10:02:28.411Z,60.4
2022-08-28T10:04:12.117Z,60.3
2022-08-28T10:05:55.822Z,60.4
2022-08-28T10:07:39.507Z,60.5
2022-08-28T10:09:23.226Z,60.5
2022-08-28T10:11:06.922Z,60.5
2022-08-28T10:12:50.616Z,60.5
2022-08-28T10:14:34.335Z,60.6
2022-08-28T10:16:18.049Z,60.5
2022-08-28T10:18:01.734Z,60.4
2022-08-28T10:19:45.440Z,60.3
2022-08-28T10:21:29.131Z,60.2
2022-08-28T10:23:12.831Z,60.2
2022-08-28T10:24:56.540Z,60.2
2022-08-28T10:26:40.243Z,60.2
2022-08-28T10:28:23.959Z,60
2022-08-28T10:30:07.658Z,60
2022-08-28T10:31:51.372Z,60
2022-08-28T10:33:35.067Z,60.1
2022-08-28T10:35:18.752Z,60.2
2022-08-28T10:37:02.467Z,60.2
2022-08-28T10:38:46.161Z,60
2022-08-28T10:40:29.870Z,59.8
2022-08-28T10:42:13.578Z,59.6
2022-08-28T10:43:57.272Z,59.4
2022-08-28T10:45:40.987Z,59.3
2022-08-28T10:47:24.674Z,59.2
2022-08-28T10:49:08.405Z,59.5
2022-08-28T10:50:52.091Z,59.7
2022-08-28T10:52:35.783Z,59.8
2022-08-28T10:54:19.488Z,60
2022-08-28T10:56:03.169Z,60.1
2022-08-28T10:57:46.899Z,60.1
2022-08-28T10:59:30.589Z,60.1
2022-08-28T11:01:14.266Z,60.1
2022-08-28T11:02:57.991Z,60.1
2022-08-28T11:04:41.680Z,60
2022-08-28T11:06:25.374Z,59.8
2022-08-28T11:08:09.069Z,59.6
2022-08-28T11:09:52.765Z,59.4
2022-08-28T11:11:36.496Z,59.4
2022-08-28T11:13:20.184Z,59.3
2022-08-28T11:15:03.879Z,59.1
2022-08-28T11:16:47.586Z,59
2022-08-28T11:18:31.286Z,59.3
2022-08-28T11:20:14.983Z,59.5
2022-08-28T11:21:58.672Z,59.6
2022-08-28T11:23:42.384Z,59.7
2022-08-28T11:25:26.087Z,59.8
2022-08-28T11:27:09.800Z,59.9
2022-08-28T11:30:37.215Z,60
2022-08-28T11:32:20.903Z,60
2022-08-28T11:34:04.584Z,60
2022-08-28T11:35:48.271Z,60
2022-08-28T11:37:31.971Z,60
2022-08-28T11:39:15.689Z,60
2022-08-28T11:40:59.405Z,60
2022-08-28T11:42:43.074Z,60
2022-08-28T11:44:26.768Z,59.8
2022-08-28T11:46:10.505Z,59.6
2022-08-28T11:47:54.185Z,59.5
2022-08-28T11:49:37.878Z,59.4
2022-08-28T11:51:21.570Z,59.3
2022-08-28T11:53:05.300Z,59.1
2022-08-28T11:54:48.990Z,59
2022-08-28T11:56:32.691Z,59
2022-08-28T11:58:16.487Z,59.1
2022-08-28T12:00:00.100Z,59.1
2022-08-28T12:01:43.794Z,59.2
2022-08-28T12:03:27.487Z,59.3
2022-08-28T12:05:11.224Z,59.3
2022-08-28T12:06:54.906Z,59.4
2022-08-28T12:08:38.609Z,59.5
2022-08-28T12:10:22.313Z,59.6
2022-08-28T12:12:06.007Z,59.7
2022-08-28T12:13:49.732Z,59.9
2022-08-28T12:15:33.430Z,60
2022-08-28T12:17:17.103Z,59.9
2022-08-28T12:19:00.856Z,60
2022-08-28T12:20:44.521Z,59.9
2022-08-28T12:22:28.218Z,59.9
2022-08-28T12:24:11.914Z,60
2022-08-28T12:25:55.624Z,60.1
2022-08-28T12:27:39.329Z,59.9
2022-08-28T12:29:23.020Z,59.8
2022-08-28T12:31:06.727Z,59.5
2022-08-28T12:32:50.415Z,59.5
2022-08-28T12:34:34.135Z,59.4
2022-08-28T12:36:17.816Z,59.4
2022-08-28T12:38:01.524Z,59.4
2022-08-28T12:39:45.236Z,59.3
2022-08-28T12:41:28.934Z,59.3
2022-08-28T12:44:56.317Z,59.2
2022-08-28T12:46:40.021Z,59.2
2022-08-28T12:48:23.740Z,59.3
2022-08-28T12:50:07.446Z,59.4
2022-08-28T12:51:51.140Z,59.5
2022-08-28T12:53:34.851Z,59.6
2022-08-28T12:55:18.546Z,59.8
2022-08-28T12:57:02.255Z,59.8
2022-08-28T12:58:45.942Z,59.8
2022-08-28T13:00:29.653Z,59.9
2022-08-28T13:02:13.346Z,59.9
2022-08-28T13:03:57.050Z,60
2022-08-28T13:05:40.752Z,60
2022-08-28T13:07:24.452Z,59.9
2022-08-28T13:09:08.155Z,59.9
2022-08-28T13:10:51.845Z,59.9
2022-08-28T13:12:35.613Z,59.8
2022-08-28T13:14:19.259Z,59.8
2022-08-28T13:16:02.945Z,59.8
2022-08-28T13:17:46.656Z,59.7
2022-08-28T13:19:30.365Z,59.8
2022-08-28T13:21:14.060Z,59.9
2022-08-28T13:22:57.747Z,60
2022-08-28T13:24:41.441Z,60
2022-08-28T13:26:25.157Z,60.1
2022-08-28T13:28:08.859Z,60.1
2022-08-28T13:29:52.548Z,60.2
2022-08-28T13:31:36.266Z,60.2
2022-08-28T13:33:19.960Z,60.3
2022-08-28T13:35:03.663Z,60.5
2022-08-28T13:36:47.355Z,60.5
2022-08-28T13:38:31.062Z,60.7
2022-08-28T13:40:14.781Z,60.8
2022-08-28T13:41:58.475Z,60.8
2022-08-28T13:43:42.169Z,61
2022-08-28T13:45:25.869Z,61
2022-08-28T13:47:09.578Z,61
2022-08-28T13:48:53.296Z,61.1
2022-08-28T13:50:37.016Z,61.1
2022-08-28T13:52:20.683Z,61
2022-08-28T13:54:04.401Z,60.8
2022-08-28T13:55:48.107Z,60.9
2022-08-28T13:57:31.809Z,60.8
2022-08-28T13:59:15.495Z,60.7
2022-08-28T14:00:59.205Z,60.6
2022-08-28T14:02:42.916Z,60.5
2022-08-28T14:04:26.621Z,60.4
2022-08-28T14:06:10.327Z,60.4
2022-08-28T14:07:54.050Z,60.2
2022-08-28T14:09:37.704Z,60
2022-08-28T14:11:21.436Z,60.1
2022-08-28T14:13:05.135Z,60
2022-08-28T14:14:48.831Z,60
2022-08-28T14:16:32.556Z,60
2022-08-28T14:18:16.250Z,60.1
2022-08-28T14:19:59.942Z,60
2022-08-28T14:21:43.664Z,60
2022-08-28T14:23:27.349Z,60
2022-08-28T14:25:11.047Z,60
2022-08-28T14:26:54.747Z,60
2022-08-28T14:28:38.455Z,60.1
2022-08-28T14:30:22.140Z,60.1
2022-08-28T14:32:05.851Z,60.3
2022-08-28T14:33:49.566Z,60.4
2022-08-28T14:35:33.271Z,60.4
2022-08-28T14:37:16.952Z,60.5
2022-08-28T14:39:00.661Z,60.6
2022-08-28T14:40:44.358Z,60.6
2022-08-28T14:42:28.063Z,60.8
2022-08-28T14:44:11.764Z,60.9
2022-08-28T14:45:55.471Z,61
2022-08-28T14:47:39.161Z,61
2022-08-28T14:49:22.874Z,61.1
2022-08-28T14:51:06.558Z,61.2
2022-08-28T14:52:50.269Z,61.3
2022-08-28T14:54:33.980Z,61.4
2022-08-28T14:56:17.686Z,61.5
2022-08-28T14:58:01.378Z,61.5
2022-08-28T14:59:45.077Z,61.6
2022-08-28T15:01:28.781Z,61.7
2022-08-28T15:03:12.495Z,61.7
2022-08-28T15:04:56.192Z,61.7
2022-08-28T15:06:39.886Z,61.7
2022-08-28T15:08:23.608Z,61.7
2022-08-28T15:10:07.306Z,61.7
2022-08-28T15:11:51.022Z,61.6
2022-08-28T15:13:34.700Z,61.6
2022-08-28T15:15:18.419Z,61.7
2022-08-28T15:17:02.109Z,61.6
2022-08-28T15:18:45.803Z,61.7
2022-08-28T15:20:29.505Z,61.7
2022-08-28T15:22:13.214Z,61.7
2022-08-28T15:23:56.908Z,61.6
2022-08-28T15:25:40.614Z,61.7
2022-08-28T15:27:24.331Z,61.7
2022-08-28T15:29:08.024Z,61.7
2022-08-28T15:30:51.709Z,61.7
2022-08-28T15:32:35.436Z,61.6
2022-08-28T15:34:19.138Z,61.6
2022-08-28T15:36:02.832Z,61.6
2022-08-28T15:37:46.534Z,61.5
2022-08-28T15:39:30.254Z,61.6
2022-08-28T15:41:13.952Z,61.5
2022-08-28T15:42:57.646Z,61.5
2022-08-28T15:44:41.364Z,61.5
2022-08-28T15:46:25.049Z,61.5
2022-08-28T15:48:08.739Z,61.6
2022-08-28T15:49:52.439Z,61.7
2022-08-28T15:51:36.150Z,61.7
2022-08-28T15:53:19.871Z,61.8
2022-08-28T15:55:03.554Z,61.8
2022-08-28T15:56:47.247Z,61.8
2022-08-28T15:58:30.967Z,61.8
2022-08-28T16:00:14.659Z,61.8
2022-08-28T16:01:58.375Z,61.8
2022-08-28T16:03:42.071Z,62
2022-08-28T16:08:53.172Z,61.8
2022-08-28T16:10:36.897Z,61.8
2022-08-28T16:12:20.594Z,61.8
2022-08-28T16:14:04.289Z,61.8
2022-08-28T16:15:47.985Z,61.8
2022-08-28T16:17:31.691Z,61.9
2022-08-28T16:19:15.402Z,61.8
2022-08-28T16:20:59.095Z,61.9
2022-08-28T16:22:42.806Z,61.8
2022-08-28T16:24:26.495Z,61.7
2022-08-28T16:26:10.200Z,61.8
2022-08-28T16:27:53.939Z,61.8
2022-08-28T16:29:37.585Z,61.8
2022-08-28T16:31:21.299Z,61.9
2022-08-28T16:33:05.012Z,61.9
2022-08-28T16:34:48.745Z,61.9
2022-08-28T16:36:32.416Z,62
2022-08-28T16:38:16.102Z,62
2022-08-28T16:39:59.844Z,62.1
2022-08-28T16:41:43.521Z,62.2
2022-08-28T16:43:27.221Z,62.2
2022-08-28T16:45:10.921Z,62.2
2022-08-28T16:46:54.642Z,62.2
2022-08-28T16:48:38.317Z,62.3
2022-08-28T16:50:22.031Z,62.3
2022-08-28T16:52:05.736Z,62.4
2022-08-28T16:53:49.430Z,62.5
2022-08-28T16:55:33.142Z,62.6
2022-08-28T16:57:16.844Z,62.6
2022-08-28T16:59:00.546Z,62.6
2022-08-28T17:00:44.249Z,62.7
2022-08-28T17:02:27.936Z,62.7
2022-08-28T17:04:11.638Z,62.8
2022-08-28T17:05:55.346Z,62.8
2022-08-28T17:07:39.058Z,63
2022-08-28T17:09:22.748Z,63.2
2022-08-28T17:11:06.468Z,63.3
2022-08-28T17:12:50.155Z,63.2
2022-08-28T17:14:33.847Z,63.1
2022-08-28T17:16:17.575Z,63.1
2022-08-28T17:18:01.262Z,63.1
2022-08-28T17:19:44.972Z,63.2
2022-08-28T17:21:28.674Z,63.2
2022-08-28T17:23:12.372Z,63.3
2022-08-28T17:24:56.083Z,63.3
2022-08-28T17:26:39.793Z,63.4
2022-08-28T17:28:23.473Z,63.4
2022-08-28T17:30:07.188Z,63.4
2022-08-28T17:31:50.896Z,63.4
2022-08-28T17:33:34.594Z,63.5
2022-08-28T17:35:18.291Z,63.5
2022-08-28T17:37:02.002Z,63.5
2022-08-28T17:38:45.684Z,63.5
2022-08-28T17:40:29.406Z,63.5
2022-08-28T17:42:13.085Z,63.5
2022-08-28T17:43:56.801Z,63.6
2022-08-28T17:45:40.494Z,63.7
2022-08-28T17:47:24.194Z,64.2
2022-08-28T17:49:07.903Z,64.4
2022-08-28T17:50:51.610Z,64.5
2022-08-28T17:52:35.293Z,64.6
2022-08-28T17:54:19.018Z,64.7
2022-08-28T17:56:02.698Z,64.7
2022-08-28T17:57:46.412Z,64.7
2022-08-28T17:59:30.110Z,64.8
2022-08-28T18:01:13.827Z,65.1
2022-08-28T18:02:57.547Z,65.1
2022-08-28T18:06:24.914Z,65.3
2022-08-28T18:08:08.639Z,65.5
2022-08-28T18:09:52.318Z,65.7
2022-08-28T18:11:36.021Z,65.9
2022-08-28T18:13:19.730Z,66
2022-08-28T18:15:03.433Z,66
2022-08-28T18:16:47.124Z,66.1
2022-08-28T18:18:30.836Z,66.2
2022-08-28T18:20:14.542Z,66.2
2022-08-28T18:21:58.256Z,66.2
2022-08-28T18:23:41.940Z,66.3
2022-08-28T18:25:25.639Z,66.3
2022-08-28T18:27:09.346Z,66.3
2022-08-28T18:28:53.049Z,66.3
2022-08-28T18:30:36.757Z,66.4
2022-08-28T18:32:20.444Z,66.4
2022-08-28T18:34:04.152Z,66.5
2022-08-28T18:35:47.865Z,66.5
2022-08-28T18:37:31.555Z,66.5
2022-08-28T18:39:15.253Z,66.6
2022-08-28T18:40:58.969Z,66.6
2022-08-28T18:42:42.674Z,66.6
2022-08-28T18:44:26.365Z,66.7
2022-08-28T18:46:10.085Z,66.7
2022-08-28T18:47:53.776Z,66.7
2022-08-28T18:49:37.496Z,66.7
2022-08-28T18:51:21.190Z,66.8
2022-08-28T18:53:04.891Z,66.8
2022-08-28T18:54:48.579Z,66.8
2022-08-28T18:56:32.290Z,66.8
2022-08-28T18:58:15.985Z,66.9
2022-08-28T18:59:59.703Z,66.9
2022-08-28T19:01:43.464Z,67
2022-08-28T19:03:27.096Z,67
2022-08-28T19:05:10.817Z,67
2022-08-28T19:06:54.529Z,67
2022-08-28T19:08:38.220Z,67.1
2022-08-28T19:10:21.913Z,67.1
2022-08-28T19:12:05.608Z,67.1
2022-08-28T19:13:49.308Z,67.2
2022-08-28T19:15:33.016Z,67.2
2022-08-28T19:17:16.691Z,67.2
2022-08-28T19:19:00.400Z,67.2
2022-08-28T19:20:44.102Z,67.2
2022-08-28T19:22:27.821Z,67.2
2022-08-28T19:24:11.509Z,67.2
2022-08-28T19:25:55.207Z,67.4
2022-08-28T19:27:38.916Z,67.7
2022-08-28T19:29:22.611Z,67.7
2022-08-28T19:31:06.304Z,67.5
2022-08-28T19:32:50.018Z,67.5
2022-08-28T19:34:33.708Z,67.5
2022-08-28T19:36:17.439Z,67.5
2022-08-28T19:38:01.137Z,67.5
2022-08-28T19:39:44.815Z,67.5
2022-08-28T19:41:28.514Z,67.5
2022-08-28T19:43:12.223Z,67.5
2022-08-28T19:44:55.908Z,67.5
2022-08-28T19:46:39.628Z,67.4
2022-08-28T19:48:23.320Z,67.4
2022-08-28T19:50:07.030Z,67.5
2022-08-28T19:51:50.701Z,67.5
2022-08-28T19:53:34.416Z,67.6
2022-08-28T19:55:18.112Z,67.6
2022-08-28T19:57:01.836Z,67.5
2022-08-28T19:58:45.515Z,67.6
2022-08-28T20:00:29.231Z,67.6
2022-08-28T20:02:12.927Z,67.6
2022-08-28T20:03:56.648Z,67.7
2022-08-28T20:05:40.318Z,67.6
2022-08-28T20:07:24.012Z,67.6
2022-08-28T20:09:07.717Z,67.6
2022-08-28T20:10:51.437Z,67.6
2022-08-28T20:12:35.118Z,67.7
2022-08-28T20:14:18.825Z,67.6
2022-08-28T20:16:02.533Z,67.7
2022-08-28T20:17:46.227Z,67.7
2022-08-28T20:19:29.908Z,67.8
2022-08-28T20:21:13.625Z,67.7
2022-08-28T20:22:57.324Z,67.6
2022-08-28T20:24:41.025Z,67.5
2022-08-28T20:26:24.734Z,67.4
2022-08-28T20:28:08.418Z,67.1
2022-08-28T20:29:52.132Z,67
2022-08-28T20:31:35.835Z,67
2022-08-28T20:33:19.536Z,67
2022-08-28T20:35:03.238Z,67
2022-08-28T20:36:46.944Z,67
2022-08-28T20:38:30.651Z,67
2022-08-28T20:40:14.327Z,67
2022-08-28T20:41:58.043Z,67
2022-08-28T20:43:41.724Z,67
2022-08-28T20:45:25.443Z,66.9
2022-08-28T20:47:09.147Z,67
2022-08-28T20:48:52.843Z,66.9
2022-08-28T20:50:36.554Z,67
2022-08-28T20:52:20.246Z,67
2022-08-28T20:54:03.940Z,67
2022-08-28T20:55:47.660Z,67
2022-08-28T20:57:31.348Z,67
2022-08-28T20:59:15.069Z,67
2022-08-28T21:00:58.757Z,67
2022-08-28T21:02:42.451Z,67
2022-08-28T21:04:26.158Z,66.9
2022-08-28T21:06:09.876Z,66.8
2022-08-28T21:07:53.565Z,66.6
2022-08-28T21:09:37.278Z,66.7
2022-08-28T21:11:20.965Z,66.7
2022-08-28T21:13:04.679Z,66.8
2022-08-28T21:14:48.371Z,66.8
2022-08-28T21:16:32.094Z,66.8
2022-08-28T21:18:15.818Z,66.8
2022-08-28T21:19:59.474Z,66.8
2022-08-28T21:21:43.187Z,66.8
2022-08-28T21:23:26.889Z,66.8
2022-08-28T21:25:10.599Z,66.8
2022-08-28T21:26:54.303Z,66.9
2022-08-28T21:28:37.995Z,66.9
2022-08-28T21:30:21.718Z,66.9
2022-08-28T21:32:05.398Z,66.8
2022-08-28T21:33:49.111Z,66.8
2022-08-28T21:35:32.798Z,66.8
2022-08-28T21:37:16.493Z,66.8
2022-08-28T21:39:00.216Z,66.8
2022-08-28T21:40:43.912Z,66.8
2022-08-28T21:42:27.597Z,66.8
2022-08-28T21:44:11.307Z,66.8
2022-08-28T21:45:55.011Z,66.8
2022-08-28T21:47:38.715Z,66.8
2022-08-28T21:49:22.405Z,66.8
2022-08-28T21:51:06.113Z,66.9
2022-08-28T21:52:49.803Z,66.8
2022-08-28T21:54:33.528Z,66.9
2022-08-28T21:56:17.208Z,66.9
2022-08-28T21:58:00.921Z,66.9
2022-08-28T21:59:44.641Z,66.9
2022-08-28T22:01:28.325Z,67
2022-08-28T22:03:12.027Z,66.9
2022-08-28T22:04:55.720Z,67
2022-08-28T22:06:39.417Z,67
2022-08-28T22:08:23.137Z,67
2022-08-28T22:10:06.826Z,67.1
2022-08-28T22:11:50.521Z,67
2022-08-28T22:13:34.226Z,67.1
2022-08-28T22:15:17.926Z,67.1
2022-08-28T22:17:01.647Z,67
2022-08-28T22:18:45.336Z,67
2022-08-28T22:20:29.029Z,67
2022-08-28T22:22:12.722Z,67.1
2022-08-28T22:23:56.429Z,67.1
2022-08-28T22:25:40.124Z,67.1
2022-08-28T22:27:23.828Z,67.1
2022-08-28T22:29:07.524Z,67.1
2022-08-28T22:30:51.227Z,67.1
2022-08-28T22:32:34.942Z,67.2
2022-08-28T22:34:18.614Z,67.2
2022-08-28T22:36:02.333Z,67.2
2022-08-28T22:37:46.025Z,67.2
2022-08-28T22:39:29.716Z,67.2
2022-08-28T22:41:13.423Z,67.2
2022-08-28T22:42:57.115Z,67.2
2022-08-28T22:44:40.829Z,67.2
2022-08-28T22:46:24.510Z,67.2
2022-08-28T22:48:08.239Z,67.2
2022-08-28T22:49:51.928Z,67.3
2022-08-28T22:51:35.627Z,67.4
2022-08-28T22:53:19.445Z,67.4
2022-08-28T22:55:03.018Z,67.3
2022-08-28T22:56:46.736Z,67.4
2022-08-28T22:58:30.428Z,67.4
2022-08-28T23:00:14.138Z,67.5
2022-08-28T23:01:57.846Z,67.4
2022-08-28T23:03:41.548Z,67.4
2022-08-28T23:05:25.253Z,67.4
2022-08-28T23:07:08.932Z,67.5
2022-08-28T23:08:52.642Z,67.4
2022-08-28T23:10:36.337Z,67.5
2022-08-28T23:12:20.058Z,67.5
2022-08-28T23:14:03.761Z,67.5
2022-08-28T23:15:47.470Z,67.5
2022-08-28T23:17:31.161Z,67.5
2022-08-28T23:19:14.858Z,67.6
2022-08-28T23:20:58.563Z,67.5